Aguanga, California
Current Conditions -  °F | °C
As of 1:15 PM on Friday 24 Oct 2014 (Local Time) from KF70 Reporting Station
Clear Clear  
Wind Chill: 90°   Ceiling: Unl
Heat Index: 90°   Visibility: 10mi
Dew Point: 36°   Wind: 9mph
Humidity: 15%   Direction: 240°WSW
Pressure: 29.98"   Gusts: 16mph
Location:  33.44°N, 116.87°W
Report Text: KF70 242015Z AUTO 24008G14KT 10SM CLR 32/02 A2998 RMK AO1
Loading
Personal Weather Stations






























Interactive Weather Map
Tropical Storm Tracking
New forecast layout! Learn more

10-Day Weather Forecast

Advertisements
Track Severe Weather on mobile